Modlin Airport

EPMO · Mazovia, Poland

METAR history EPMO · Modlin Airport

Below you see METARs of the last few days. Select a year to browse through older METARs, from the year 2007 onwards.

February 4, 2023

Time Code Weather Temp. Visibility Ceiling Wind METAR/SPECI
16:30
V
-2 °C 10 km+ - 320° 320° 7 kt METAR EPMO 041530Z 32007KT 290V350 9999 FEW039 M02/M07 Q1029
16:30
V
-2 °C 10 km+ - 320° 320° 7 kt METAR EPMO 041530Z 32007KT 290V350 9999 FEW039 M02/M07 Q1029
16:00
V
-1 °C 10 km+ - 320° 320° 8 kt METAR EPMO 041500Z 32008KT 9999 SCT036 M01/M07 Q1028
15:30
V
-1 °C 10 km+ - 310° 310° 10 kt METAR EPMO 041430Z 31010KT 280V350 9999 SCT036 M01/M06 Q1028
15:00
V
-1 °C 10 km+ - 310° 310° 10 kt METAR EPMO 041400Z 31010KT 280V340 9999 FEW024 SCT033 M01/M06 Q1028
14:30
V
-1 °C 10 km+ 3,300 ft 310° 310° 9 kt METAR EPMO 041330Z 31009KT 9999 FEW025 BKN033 M01/M05 Q1027
14:00
V
-1 °C 10 km+ 3,200 ft 310° 310° 12 kt METAR EPMO 041300Z 31012KT 280V340 9999 FEW025 BKN032 M01/M05 Q1027
13:30
V
-1 °C 10 km+ 3,000 ft 290° 290° 11 kt METAR EPMO 041230Z 29011KT 9999 -SHSN FEW023TCU BKN030 M01/M04 Q1027
13:00
M
-1 °C 10 km+ 2,900 ft 290° 290° 12 kt METAR EPMO 041200Z 29012KT 9999 BKN029 M01/M05 Q1027
12:30
M
-1 °C 10 km+ 2,700 ft 290° 290° 11 kt METAR EPMO 041130Z 29011KT 9999 BKN027 M01/M05 Q1027
12:00
V
-2 °C 10 km+ - 300° 300° 12 kt METAR EPMO 041100Z 30012KT 9999 SCT033 M02/M06 Q1027
11:30
V
-2 °C 10 km+ - 290° 290° 12 kt METAR EPMO 041030Z 29012KT 9999 FEW030 M02/M06 Q1026
11:00
V
-2 °C 10 km+ - 300° 300° 8 kt METAR EPMO 041000Z 30008KT 9999 FEW030 M02/M06 Q1026
10:30
V
-2 °C 10 km+ - 300° 300° 8 kt METAR EPMO 040930Z 30008KT 9999 FEW030 M02/M06 Q1026
10:00
V
-2 °C 10 km+ - 330° 330° 7 kt METAR EPMO 040900Z 33007KT 9999 FEW028 M02/M06 Q1025
09:30
V
-2 °C 10 km+ - 350° 350° 9 kt METAR EPMO 040830Z 35009KT 9999 SCT043 M02/M06 Q1025
09:00
V
-3 °C 10 km+ - 340° 340° 9 kt METAR EPMO 040800Z 34009KT 9999 FEW030 M03/M06 Q1025
08:30
V
-3 °C 10 km+ - 340° 340° 9 kt METAR EPMO 040730Z 34009KT CAVOK M03/M06 Q1024
08:00
V
-3 °C 10 km+ - 350° 350° 9 kt METAR EPMO 040700Z 35009KT CAVOK M03/M06 Q1023
07:30
V
-3 °C 10 km+ - 350° 350° 11 kt METAR EPMO 040630Z 35011KT 9999 FEW040 M03/M05 Q1022
07:00
V
-2 °C 10 km+ - 340° 340° 11 kt METAR EPMO 040600Z 34011KT 9999 FEW040 M02/M05 Q1021
06:30
V
-2 °C 10 km+ - 350° 350° 9 kt METAR EPMO 040530Z 35009KT 9999 FEW040 M02/M04 Q1020
06:00
V
-1 °C 10 km+ - 350° 350° 12 kt METAR EPMO 040500Z 35012KT 9999 SCT035 M01/M03 Q1019
05:30
V
-1 °C 10 km+ 4,600 ft 350° 350° 11 kt METAR EPMO 040430Z 35011KT 9999 SCT015 BKN046 M01/M03 Q1018
05:00
V
-2 °C 10 km+ - 360° 360° 12 kt METAR EPMO 040400Z 36012KT 9999 SCT015 M02/M04 Q1017
04:30
M
-1 °C 10 km+ 1,300 ft 350° 350° 14 kt METAR EPMO 040330Z 35014KT 9999 BKN013 M01/M03 Q1016
04:00
V
-1 °C 10 km+ - 020° 020° 13 kt METAR EPMO 040300Z 02013KT 9999 SCT027 M01/M03 Q1015
03:30
M
-1 °C 10 km+ 1,600 ft 010° 010° 14 kt METAR EPMO 040230Z 01014KT 9999 -SN BKN016 M01/M03 Q1014
03:00
M
-1 °C 7 km 1,100 ft 020° 020° 14 kt METAR EPMO 040200Z 02014KT 7000 -SN SCT008 BKN011 M01/M03 Q1013
02:30
M
-1 °C 6 km 1,000 ft 020° 020° 16 kt METAR EPMO 040130Z 02016KT 6000 -SN BKN010 M01/M02 Q1012 RESN
02:00
I
-1 °C 1.9 km 700 ft 020° 020° 16 kt METAR EPMO 040100Z 02016KT 1900 SN BR BKN007 OVC010 M01/M02 Q1011
01:30
I
-1 °C 1.8 km 800 ft 030° 030° 19 kt METAR EPMO 040030Z 03019KT 1800 SN BR BKN008 OVC012 M01/M02 Q1010
01:00
I
-1 °C 1.8 km 600 ft 030° 030° 15 kt METAR EPMO 040000Z 03015KT 1800 SN BR BKN006 OVC010 M01/M02 Q1010
00:30
I
-1 °C 2.5 km 500 ft 040° 040° 14 kt METAR EPMO 032330Z 04014KT 2500 SN BR OVC005 M01/M02 Q1009
00:00
I
-1 °C 5 km 600 ft 040° 040° 14 kt METAR EPMO 032300Z 04014KT 5000 -SN BR OVC006 M01/M02 Q1008

February 3, 2023

Time Code Weather Temp. Visibility Ceiling Wind METAR/SPECI
23:30
I
-1 °C 8 km 900 ft 050° 050° 12 kt METAR EPMO 032230Z 05012KT 8000 -SN BKN009 M01/M02 Q1007
23:00
I
-1 °C 8 km 800 ft 060° 060° 12 kt METAR EPMO 032200Z 06012KT 8000 -SN BKN008 M01/M02 Q1006
22:30
I
-1 °C 7 km 700 ft 060° 060° 11 kt METAR EPMO 032130Z 06011KT 7000 -SN BKN007 M01/M01 Q1006
22:00
I
-1 °C 6 km 700 ft 060° 060° 11 kt METAR EPMO 032100Z 06011KT 6000 -SN BKN007 M01/M01 Q1006
21:30
I
-1 °C 5 km 800 ft 060° 060° 9 kt METAR EPMO 032030Z 06009KT 5000 -SN BR BKN008 M01/M01 Q1005
21:00
I
-1 °C 5 km 700 ft 070° 070° 9 kt METAR EPMO 032000Z 07009KT 5000 -SN BR BKN007 M01/M01 Q1005
20:30
I
-1 °C 6 km 700 ft 080° 080° 8 kt METAR EPMO 031930Z 08008KT 6000 -SN BKN007 M01/M01 Q1005
20:00
I
-1 °C 6 km 700 ft 070° 070° 10 kt METAR EPMO 031900Z 07010KT 6000 -SN BKN007 M01/M01 Q1005
19:30
I
-1 °C 3.8 km 500 ft 080° 080° 9 kt METAR EPMO 031830Z 08009KT 3800 -SN BR BKN005 M01/M01 Q1005
19:00
I
-1 °C 3.1 km 500 ft 080° 080° 9 kt METAR EPMO 031800Z 08009KT 3100 -SN BR BKN005 M01/M01 Q1005
18:30
I
-1 °C 2.8 km 500 ft 090° 090° 9 kt METAR EPMO 031730Z 09009KT 2800 -SN BR BKN005 M01/M01 Q1004 RESN
18:00
L
-1 °C 2.1 km 400 ft 100° 100° 10 kt METAR EPMO 031700Z 10010KT 080V140 2100 SN BR BKN004 M01/M01 Q1004
17:30
L
-1 °C 1.5 km 400 ft 100° 100° 11 kt METAR EPMO 031630Z 10011KT 1500 R08/1400D SN BR BKN004 M01/M01 Q1004
17:00
L
-1 °C 1.2 km 400 ft 100° 100° 11 kt METAR EPMO 031600Z 10011KT 1200 R08/1400U SN BR BKN004 M01/M01 Q1004 RESN
16:30
L
-1 °C 900 m 700 ft 100° 100° 11 kt METAR EPMO 031530Z 10011KT 0900 R08/0900N +SN OVC007 M01/M01 Q1005
16:00
L
-1 °C 1.1 km 500 ft 110° 110° 10 kt METAR EPMO 031500Z 11010KT 1100 R08/1200N +SN BKN005 M01/M01 Q1005
15:30
L
-1 °C 650 m 600 ft 110° 110° 10 kt METAR EPMO 031430Z 11010KT 0650 R08/0900N +SN BKN006 M01/M01 Q1006
15:00
L
-1 °C 800 m 800 ft 120° 120° 9 kt METAR EPMO 031400Z 12009KT 0800 R08/0900N +SN FEW004 OVC008 M01/M01 Q1006
14:30
L
-1 °C 1.1 km 1,000 ft 130° 130° 8 kt METAR EPMO 031330Z 13008KT 100V160 1100 R08/1300U +SN OVC010 M01/M02 Q1007
14:00
I
0 °C 2 km 1,400 ft 150° 150° 10 kt METAR EPMO 031300Z 15010KT 2000 SN BR BKN014 M00/M03 Q1008
13:30
V
1 °C 10 km+ 3,300 ft 150° 150° 12 kt METAR EPMO 031230Z 15012KT 120V180 9999 -SN FEW018 BKN033 01/M03 Q1009
13:00
V
1 °C 10 km+ - 150° 150° 9 kt METAR EPMO 031200Z 15009KT 9999 FEW049 01/M03 Q1010
12:30
V
1 °C 10 km+ - 150° 150° 10 kt METAR EPMO 031130Z 15010KT 9999 FEW040 01/M03 Q1011
12:00
V
1 °C 10 km+ - 150° 150° 11 kt METAR EPMO 031100Z 15011KT 110V170 9999 FEW020 01/M03 Q1012
11:30
V
1 °C 10 km+ - 170° 170° 12 kt METAR EPMO 031030Z 17012KT 140V200 9999 FEW021 01/M03 Q1013
11:00
V
1 °C 10 km+ - 160° 160° 8 kt METAR EPMO 031000Z 16008KT CAVOK 01/M03 Q1014
10:30
V
0 °C 10 km+ - 170° 170° 8 kt METAR EPMO 030930Z 17008KT 9999 FEW015 00/M03 Q1014
10:00
V
0 °C 10 km+ - 170° 170° 8 kt METAR EPMO 030900Z 17008KT 9999 FEW010 M00/M02 Q1015
09:30
V
-1 °C 10 km+ - 180° 180° 7 kt METAR EPMO 030830Z 18007KT 9999 FEW008 M01/M02 Q1016
09:00
V
-1 °C 10 km+ - 170° 170° 7 kt METAR EPMO 030800Z 17007KT 9999 FEW005 M01/M02 Q1016
08:30
V
-2 °C 10 km+ - 180° 180° 7 kt METAR EPMO 030730Z 18007KT CAVOK M02/M02 Q1017
08:00
V
-2 °C 10 km+ - 190° 190° 5 kt METAR EPMO 030700Z 19005KT CAVOK M02/M02 Q1017
07:30
V
-3 °C 10 km+ - 170° 170° 6 kt METAR EPMO 030630Z 17006KT CAVOK M03/M03 Q1018
07:00
V
-2 °C 10 km+ - 190° 190° 6 kt METAR EPMO 030600Z 19006KT CAVOK M02/M03 Q1018
06:30
V
-2 °C 10 km+ - 210° 210° 6 kt METAR EPMO 030530Z 21006KT CAVOK M02/M03 Q1018
06:00
V
-2 °C 10 km+ - 220° 220° 6 kt METAR EPMO 030500Z 22006KT CAVOK M02/M03 Q1018
05:30
V
-3 °C 10 km+ - 240° 240° 7 kt METAR EPMO 030430Z 24007KT CAVOK M03/M05 Q1019
05:00
V
-3 °C 10 km+ - 230° 230° 6 kt METAR EPMO 030400Z 23006KT CAVOK M03/M04 Q1019
04:30
V
-3 °C 10 km+ - 230° 230° 7 kt METAR EPMO 030330Z 23007KT CAVOK M03/M04 Q1019
04:00
V
-2 °C 10 km+ - 230° 230° 5 kt METAR EPMO 030300Z 23005KT CAVOK M02/M04 Q1019
03:30
V
-3 °C 10 km+ - 250° 250° 6 kt METAR EPMO 030230Z 25006KT CAVOK M03/M05 Q1019
03:00
V
-2 °C 10 km+ 4,100 ft 270° 270° 6 kt METAR EPMO 030200Z 27006KT 9999 BKN041 M02/M04 Q1019
02:30
M
-1 °C 10 km+ 2,000 ft 280° 280° 9 kt METAR EPMO 030130Z 28009KT 9999 BKN020 M01/M03 Q1019
02:00
M
0 °C 10 km+ 2,300 ft 270° 270° 10 kt METAR EPMO 030100Z 27010KT 9999 BKN023 M00/M02 Q1019
01:30
V
-1 °C 10 km+ - 290° 290° 8 kt METAR EPMO 030030Z 29008KT 9999 SCT017 M01/M03 Q1019
01:00
V
0 °C 10 km+ - 290° 290° 10 kt METAR EPMO 030000Z 29010KT CAVOK M00/M02 Q1019
00:30
V
0 °C 10 km+ 4,000 ft 290° 290° 12 kt METAR EPMO 022330Z 29012KT 9999 FEW022 BKN040 00/M01 Q1019
00:00
V
0 °C 10 km+ - 280° 280° 11 kt METAR EPMO 022300Z 28011KT 9999 SCT010 00/M01 Q1018

February 2, 2023

Time Code Weather Temp. Visibility Ceiling Wind METAR/SPECI
23:30
V
0 °C 10 km+ 4,200 ft 280° 280° 9 kt METAR EPMO 022230Z 28009KT 9999 SCT009 BKN042 00/M01 Q1018
23:00
V
0 °C 10 km+ - 290° 290° 10 kt METAR EPMO 022200Z 29010KT 9999 SCT046 00/M01 Q1018
22:30
V
0 °C 10 km+ 4,000 ft 290° 290° 9 kt METAR EPMO 022130Z 29009KT 9999 SCT013 BKN040 00/M01 Q1017
22:00
V
0 °C 10 km+ - 300° 300° 11 kt METAR EPMO 022100Z 30011KT CAVOK 00/M01 Q1017
21:30
M
1 °C 10 km+ 2,000 ft 290° 290° 12 kt METAR EPMO 022030Z 29012KT 9999 BKN020 01/M01 Q1016
21:00
V
1 °C 10 km+ - 300° 300° 10 kt METAR EPMO 022000Z 30010KT CAVOK 01/M01 Q1016
20:30
V
1 °C 10 km+ - 310° 310° 9 kt METAR EPMO 021930Z 31009KT 9999 FEW021 01/M01 Q1015
20:00
M
1 °C 10 km+ 2,700 ft 310° 310° 12 kt METAR EPMO 021900Z 31012KT 9999 SCT016 BKN027 01/M00 Q1014
19:30
M
1 °C 10 km+ 2,500 ft 300° 300° 11 kt METAR EPMO 021830Z 30011KT 9999 BKN025 01/M00 Q1014
19:00
M
2 °C 10 km+ 1,500 ft 300° 300° 12 kt METAR EPMO 021800Z 30012KT 260V320 9999 BKN015 02/00 Q1013
18:30
M
2 °C 10 km+ 1,700 ft 290° 290° 9 kt METAR EPMO 021730Z 29009KT 9999 BKN017 02/00 Q1013
18:00
M
2 °C 10 km+ 2,500 ft 300° 300° 6 kt METAR EPMO 021700Z 30006KT 9999 SCT014 BKN025 02/00 Q1012
17:30
V
2 °C 10 km+ 3,300 ft 290° 290° 8 kt METAR EPMO 021630Z 29008KT 9999 SCT019 BKN033 02/00 Q1011
16:30
V
2 °C 10 km+ - 310° 310° 12 kt METAR EPMO 021530Z 31012KT 9999 FEW017 SCT022 02/01 Q1010
16:00
M
3 °C 10 km+ 2,300 ft 290° 290° 12 kt METAR EPMO 021500Z 29012KT 9999 -SHRA BKN023CB BKN045 03/01 Q1009
15:00
V
4 °C 10 km+ 3,100 ft 300° 300° 12 kt METAR EPMO 021400Z 30012KT 9999 SCT021 BKN031 04/01 Q1007
14:30
M
4 °C 10 km+ 1,800 ft 300° 300° 10 kt METAR EPMO 021330Z 30010KT 280V340 9999 BKN018 04/02 Q1007
14:00
V
3 °C 10 km+ - 300° 300° 12 kt METAR EPMO 021300Z 30012KT 270V330 9999 SCT013 03/02 Q1006
13:30
M
3 °C 10 km+ 1,300 ft 300° 300° 13 kt METAR EPMO 021230Z 30013KT 9999 SCT008 BKN013 BKN020 03/02 Q1006
13:00
M
3 °C 8 km 1,000 ft 290° 290° 10 kt METAR EPMO 021200Z 29010KT 8000 -RA BKN010 03/03 Q1005
12:30
M
3 °C 10 km+ 1,000 ft 300° 300° 9 kt METAR EPMO 021130Z 30009KT 9999 BKN010 BKN016 03/03 Q1004
12:00
I
3 °C 10 km+ 900 ft 290° 290° 8 kt METAR EPMO 021100Z 29008KT 9999 BKN009 03/03 Q1004
11:30
I
2 °C 10 km+ 800 ft 290° 290° 7 kt METAR EPMO 021030Z 29007KT 260V320 9999 -RA BKN008 02/02 Q1004
11:00
I
2 °C 10 km+ 800 ft 280° 280° 6 kt METAR EPMO 021000Z 28006KT 9999 -RA BKN008 02/02 Q1003
10:30
I
2 °C 10 km+ 600 ft 250° 250° 7 kt METAR EPMO 020930Z 25007KT 9999 BKN006 02/02 Q1003
10:00
I
2 °C 10 km+ 600 ft 240° 240° 6 kt METAR EPMO 020900Z 24006KT 9999 BKN006 BKN021 02/02 Q1003
09:30
I
2 °C 10 km+ 600 ft 210° 210° 7 kt METAR EPMO 020830Z 21007KT 170V250 9999 -RA BKN006 02/02 Q1002
09:00
I
2 °C 9 km 700 ft 200° 200° 7 kt METAR EPMO 020800Z 20007KT 9000 -RA BKN007 02/02 Q1002

We and third parties follow your internet behavior on our website with cookies. If you continue, we assume you agree with our cookie policy.